sensor_id;sensor_type;location;lat;lon;timestamp;P1;durP1;ratioP1;P2;durP2;ratioP2
3299;SDS011;1662;49.310;8.134;2023-05-15T00:00:05;3.93;;;3.73;;
3299;SDS011;1662;49.310;8.134;2023-05-15T00:02:31;3.27;;;3.17;;
3299;SDS011;1662;49.310;8.134;2023-05-15T00:04:59;4.50;;;4.07;;
3299;SDS011;1662;49.310;8.134;2023-05-15T00:07:28;3.87;;;3.67;;
3299;SDS011;1662;49.310;8.134;2023-05-15T00:09:54;3.60;;;3.50;;
3299;SDS011;1662;49.310;8.134;2023-05-15T00:12:19;3.60;;;3.40;;
3299;SDS011;1662;49.310;8.134;2023-05-15T00:14:48;3.53;;;3.33;;
3299;SDS011;1662;49.310;8.134;2023-05-15T00:17:16;3.23;;;3.13;;
3299;SDS011;1662;49.310;8.134;2023-05-15T00:19:41;3.77;;;3.57;;
3299;SDS011;1662;49.310;8.134;2023-05-15T00:22:07;4.13;;;3.93;;
3299;SDS011;1662;49.310;8.134;2023-05-15T00:24:33;6.47;;;4.50;;
3299;SDS011;1662;49.310;8.134;2023-05-15T00:26:59;4.63;;;4.33;;
3299;SDS011;1662;49.310;8.134;2023-05-15T00:29:25;3.77;;;3.43;;
3299;SDS011;1662;49.310;8.134;2023-05-15T00:31:51;4.30;;;4.10;;
3299;SDS011;1662;49.310;8.134;2023-05-15T00:34:17;3.73;;;3.53;;
3299;SDS011;1662;49.310;8.134;2023-05-15T00:36:43;4.00;;;3.87;;
3299;SDS011;1662;49.310;8.134;2023-05-15T00:39:09;4.30;;;4.10;;
3299;SDS011;1662;49.310;8.134;2023-05-15T00:41:35;4.30;;;4.00;;
3299;SDS011;1662;49.310;8.134;2023-05-15T00:44:01;3.50;;;3.40;;
3299;SDS011;1662;49.310;8.134;2023-05-15T00:46:29;4.17;;;3.93;;
3299;SDS011;1662;49.310;8.134;2023-05-15T00:48:56;4.67;;;4.20;;
3299;SDS011;1662;49.310;8.134;2023-05-15T00:51:23;4.33;;;4.13;;
3299;SDS011;1662;49.310;8.134;2023-05-15T00:53:50;4.07;;;3.87;;
3299;SDS011;1662;49.310;8.134;2023-05-15T00:56:18;4.40;;;4.20;;
3299;SDS011;1662;49.310;8.134;2023-05-15T00:58:45;4.30;;;3.97;;
3299;SDS011;1662;49.310;8.134;2023-05-15T01:01:13;4.77;;;4.37;;
3299;SDS011;1662;49.310;8.134;2023-05-15T01:03:40;3.80;;;3.50;;
3299;SDS011;1662;49.310;8.134;2023-05-15T01:06:08;4.97;;;4.63;;
3299;SDS011;1662;49.310;8.134;2023-05-15T01:11:07;3.77;;;3.67;;
3299;SDS011;1662;49.310;8.134;2023-05-15T01:13:34;4.07;;;3.80;;
3299;SDS011;1662;49.310;8.134;2023-05-15T01:16:00;4.67;;;4.27;;
3299;SDS011;1662;49.310;8.134;2023-05-15T01:18:26;4.40;;;4.20;;
3299;SDS011;1662;49.310;8.134;2023-05-15T01:28:44;4.97;;;4.67;;
3299;SDS011;1662;49.310;8.134;2023-05-15T01:31:14;4.27;;;4.07;;
3299;SDS011;1662;49.310;8.134;2023-05-15T01:33:45;4.20;;;3.90;;
3299;SDS011;1662;49.310;8.134;2023-05-15T01:36:15;5.23;;;4.83;;
3299;SDS011;1662;49.310;8.134;2023-05-15T01:38:52;4.80;;;4.50;;
3299;SDS011;1662;49.310;8.134;2023-05-15T01:43:51;4.57;;;4.17;;
3299;SDS011;1662;49.310;8.134;2023-05-15T01:46:20;4.87;;;4.47;;
3299;SDS011;1662;49.310;8.134;2023-05-15T01:48:48;4.40;;;4.10;;
3299;SDS011;1662;49.310;8.134;2023-05-15T01:51:16;4.70;;;4.40;;
3299;SDS011;1662;49.310;8.134;2023-05-15T01:53:43;4.67;;;4.30;;
3299;SDS011;1662;49.310;8.134;2023-05-15T01:56:11;3.93;;;3.73;;
3299;SDS011;1662;49.310;8.134;2023-05-15T01:58:38;4.07;;;3.87;;
3299;SDS011;1662;49.310;8.134;2023-05-15T02:01:05;3.87;;;3.67;;
3299;SDS011;1662;49.310;8.134;2023-05-15T02:03:34;3.87;;;3.67;;
3299;SDS011;1662;49.310;8.134;2023-05-15T02:06:01;3.87;;;3.67;;
3299;SDS011;1662;49.310;8.134;2023-05-15T02:08:29;4.20;;;4.00;;
3299;SDS011;1662;49.310;8.134;2023-05-15T02:10:59;4.70;;;4.30;;
3299;SDS011;1662;49.310;8.134;2023-05-15T02:13:26;4.33;;;4.00;;
3299;SDS011;1662;49.310;8.134;2023-05-15T02:15:57;3.90;;;3.70;;
3299;SDS011;1662;49.310;8.134;2023-05-15T02:18:22;3.93;;;3.73;;
3299;SDS011;1662;49.310;8.134;2023-05-15T02:20:48;4.20;;;3.90;;
3299;SDS011;1662;49.310;8.134;2023-05-15T02:23:14;4.40;;;4.20;;
3299;SDS011;1662;49.310;8.134;2023-05-15T02:28:13;4.00;;;3.80;;
3299;SDS011;1662;49.310;8.134;2023-05-15T02:30:48;4.80;;;4.60;;
3299;SDS011;1662;49.310;8.134;2023-05-15T02:38:45;4.07;;;3.80;;
3299;SDS011;1662;49.310;8.134;2023-05-15T02:41:13;4.83;;;4.53;;
3299;SDS011;1662;49.310;8.134;2023-05-15T02:43:40;3.80;;;3.60;;
3299;SDS011;1662;49.310;8.134;2023-05-15T02:46:06;4.80;;;4.40;;
3299;SDS011;1662;49.310;8.134;2023-05-15T02:48:33;4.63;;;4.40;;
3299;SDS011;1662;49.310;8.134;2023-05-15T02:51:01;4.57;;;4.37;;
3299;SDS011;1662;49.310;8.134;2023-05-15T02:53:27;4.30;;;4.10;;
3299;SDS011;1662;49.310;8.134;2023-05-15T02:55:53;4.47;;;4.23;;
3299;SDS011;1662;49.310;8.134;2023-05-15T02:58:21;5.67;;;5.17;;
3299;SDS011;1662;49.310;8.134;2023-05-15T03:00:47;4.07;;;3.77;;
3299;SDS011;1662;49.310;8.134;2023-05-15T03:03:13;4.50;;;4.20;;
3299;SDS011;1662;49.310;8.134;2023-05-15T03:05:38;4.27;;;4.07;;
3299;SDS011;1662;49.310;8.134;2023-05-15T03:08:04;3.90;;;3.70;;
3299;SDS011;1662;49.310;8.134;2023-05-15T03:10:30;4.83;;;4.63;;
3299;SDS011;1662;49.310;8.134;2023-05-15T03:12:58;4.43;;;4.23;;
3299;SDS011;1662;49.310;8.134;2023-05-15T03:15:23;4.20;;;4.00;;
3299;SDS011;1662;49.310;8.134;2023-05-15T03:17:49;4.30;;;4.00;;
3299;SDS011;1662;49.310;8.134;2023-05-15T03:20:15;5.57;;;4.67;;
3299;SDS011;1662;49.310;8.134;2023-05-15T03:22:41;4.27;;;4.07;;
3299;SDS011;1662;49.310;8.134;2023-05-15T03:25:08;4.97;;;4.70;;
3299;SDS011;1662;49.310;8.134;2023-05-15T03:27:35;4.80;;;4.50;;
3299;SDS011;1662;49.310;8.134;2023-05-15T03:30:01;4.70;;;4.50;;
3299;SDS011;1662;49.310;8.134;2023-05-15T03:32:26;4.50;;;4.20;;
3299;SDS011;1662;49.310;8.134;2023-05-15T03:34:52;3.80;;;3.60;;
3299;SDS011;1662;49.310;8.134;2023-05-15T03:37:18;4.13;;;3.93;;
3299;SDS011;1662;49.310;8.134;2023-05-15T03:39:43;4.53;;;4.33;;
3299;SDS011;1662;49.310;8.134;2023-05-15T03:42:09;4.63;;;4.33;;
3299;SDS011;1662;49.310;8.134;2023-05-15T03:44:34;5.23;;;4.93;;
3299;SDS011;1662;49.310;8.134;2023-05-15T03:47:00;5.00;;;4.70;;
3299;SDS011;1662;49.310;8.134;2023-05-15T03:49:26;3.93;;;3.73;;
3299;SDS011;1662;49.310;8.134;2023-05-15T03:51:55;4.40;;;4.10;;
3299;SDS011;1662;49.310;8.134;2023-05-15T03:54:21;5.20;;;4.70;;
3299;SDS011;1662;49.310;8.134;2023-05-15T03:56:47;5.03;;;4.73;;
3299;SDS011;1662;49.310;8.134;2023-05-15T03:59:13;4.50;;;4.20;;
3299;SDS011;1662;49.310;8.134;2023-05-15T04:01:38;5.27;;;4.77;;
3299;SDS011;1662;49.310;8.134;2023-05-15T04:04:04;5.27;;;4.83;;
3299;SDS011;1662;49.310;8.134;2023-05-15T04:06:29;5.20;;;4.80;;
3299;SDS011;1662;49.310;8.134;2023-05-15T04:08:55;5.40;;;5.07;;
3299;SDS011;1662;49.310;8.134;2023-05-15T04:11:23;4.67;;;4.37;;
3299;SDS011;1662;49.310;8.134;2023-05-15T04:13:49;5.00;;;4.70;;
3299;SDS011;1662;49.310;8.134;2023-05-15T04:16:14;4.40;;;4.20;;
3299;SDS011;1662;49.310;8.134;2023-05-15T04:18:40;4.90;;;4.53;;
3299;SDS011;1662;49.310;8.134;2023-05-15T04:21:05;4.80;;;4.50;;
3299;SDS011;1662;49.310;8.134;2023-05-15T04:23:31;5.00;;;4.70;;
3299;SDS011;1662;49.310;8.134;2023-05-15T04:25:57;4.33;;;4.03;;
3299;SDS011;1662;49.310;8.134;2023-05-15T04:28:22;4.97;;;4.60;;
3299;SDS011;1662;49.310;8.134;2023-05-15T04:30:48;4.90;;;4.40;;
3299;SDS011;1662;49.310;8.134;2023-05-15T04:33:13;4.63;;;4.33;;
3299;SDS011;1662;49.310;8.134;2023-05-15T04:35:39;4.23;;;4.03;;
3299;SDS011;1662;49.310;8.134;2023-05-15T04:38:05;4.53;;;4.33;;
3299;SDS011;1662;49.310;8.134;2023-05-15T04:40:31;4.50;;;4.30;;
3299;SDS011;1662;49.310;8.134;2023-05-15T04:42:56;4.80;;;4.33;;
3299;SDS011;1662;49.310;8.134;2023-05-15T04:45:22;4.80;;;4.40;;
3299;SDS011;1662;49.310;8.134;2023-05-15T04:47:50;5.93;;;5.53;;
3299;SDS011;1662;49.310;8.134;2023-05-15T04:50:15;3.97;;;3.77;;
3299;SDS011;1662;49.310;8.134;2023-05-15T04:52:41;4.03;;;3.83;;
3299;SDS011;1662;49.310;8.134;2023-05-15T04:55:07;4.80;;;4.40;;
3299;SDS011;1662;49.310;8.134;2023-05-15T04:57:33;5.80;;;4.13;;
3299;SDS011;1662;49.310;8.134;2023-05-15T04:59:59;4.77;;;4.47;;
3299;SDS011;1662;49.310;8.134;2023-05-15T05:02:25;4.23;;;4.03;;
3299;SDS011;1662;49.310;8.134;2023-05-15T05:04:51;4.67;;;4.27;;
3299;SDS011;1662;49.310;8.134;2023-05-15T05:07:19;4.40;;;4.20;;
3299;SDS011;1662;49.310;8.134;2023-05-15T05:09:45;4.90;;;4.60;;
3299;SDS011;1662;49.310;8.134;2023-05-15T05:12:13;4.07;;;3.87;;
3299;SDS011;1662;49.310;8.134;2023-05-15T05:14:43;4.40;;;4.20;;
3299;SDS011;1662;49.310;8.134;2023-05-15T05:17:08;4.70;;;4.40;;
3299;SDS011;1662;49.310;8.134;2023-05-15T05:19:34;5.63;;;5.20;;
3299;SDS011;1662;49.310;8.134;2023-05-15T05:21:59;5.60;;;5.30;;
3299;SDS011;1662;49.310;8.134;2023-05-15T05:24:29;5.10;;;4.80;;
3299;SDS011;1662;49.310;8.134;2023-05-15T05:26:56;5.57;;;5.27;;
3299;SDS011;1662;49.310;8.134;2023-05-15T05:29:22;5.10;;;4.80;;
3299;SDS011;1662;49.310;8.134;2023-05-15T05:31:48;4.43;;;4.23;;
3299;SDS011;1662;49.310;8.134;2023-05-15T05:34:13;5.00;;;4.70;;
3299;SDS011;1662;49.310;8.134;2023-05-15T05:36:39;4.70;;;4.40;;
3299;SDS011;1662;49.310;8.134;2023-05-15T05:39:07;5.90;;;5.37;;
3299;SDS011;1662;49.310;8.134;2023-05-15T05:41:32;5.03;;;4.73;;
3299;SDS011;1662;49.310;8.134;2023-05-15T05:43:58;6.17;;;5.70;;
3299;SDS011;1662;49.310;8.134;2023-05-15T05:46:24;8.30;;;5.40;;
3299;SDS011;1662;49.310;8.134;2023-05-15T05:48:51;5.63;;;5.33;;
3299;SDS011;1662;49.310;8.134;2023-05-15T05:51:16;6.50;;;6.10;;
3299;SDS011;1662;49.310;8.134;2023-05-15T05:53:42;6.67;;;6.10;;
3299;SDS011;1662;49.310;8.134;2023-05-15T05:56:08;8.30;;;6.80;;
3299;SDS011;1662;49.310;8.134;2023-05-15T05:58:36;7.83;;;6.27;;
3299;SDS011;1662;49.310;8.134;2023-05-15T06:01:02;6.30;;;5.80;;
3299;SDS011;1662;49.310;8.134;2023-05-15T06:03:29;5.73;;;5.37;;
3299;SDS011;1662;49.310;8.134;2023-05-15T06:05:55;4.97;;;4.67;;
3299;SDS011;1662;49.310;8.134;2023-05-15T06:08:21;6.23;;;5.73;;
3299;SDS011;1662;49.310;8.134;2023-05-15T06:10:47;6.47;;;5.80;;
3299;SDS011;1662;49.310;8.134;2023-05-15T06:13:14;6.47;;;6.07;;
3299;SDS011;1662;49.310;8.134;2023-05-15T06:15:40;5.67;;;5.30;;
3299;SDS011;1662;49.310;8.134;2023-05-15T06:18:06;6.13;;;5.63;;
3299;SDS011;1662;49.310;8.134;2023-05-15T06:20:32;5.37;;;4.97;;
3299;SDS011;1662;49.310;8.134;2023-05-15T06:22:57;5.50;;;4.97;;
3299;SDS011;1662;49.310;8.134;2023-05-15T06:25:23;5.73;;;5.33;;
3299;SDS011;1662;49.310;8.134;2023-05-15T06:27:51;5.37;;;5.07;;
3299;SDS011;1662;49.310;8.134;2023-05-15T06:30:16;5.40;;;5.10;;
3299;SDS011;1662;49.310;8.134;2023-05-15T06:32:42;4.87;;;4.57;;
3299;SDS011;1662;49.310;8.134;2023-05-15T06:35:08;6.07;;;5.67;;
3299;SDS011;1662;49.310;8.134;2023-05-15T06:37:35;6.00;;;5.43;;
3299;SDS011;1662;49.310;8.134;2023-05-15T06:40:01;5.83;;;5.50;;
3299;SDS011;1662;49.310;8.134;2023-05-15T06:42:27;6.03;;;5.63;;
3299;SDS011;1662;49.310;8.134;2023-05-15T06:44:52;6.70;;;6.10;;
3299;SDS011;1662;49.310;8.134;2023-05-15T06:47:18;4.90;;;4.70;;
3299;SDS011;1662;49.310;8.134;2023-05-15T06:49:43;5.77;;;5.47;;
3299;SDS011;1662;49.310;8.134;2023-05-15T06:52:09;4.40;;;4.20;;
3299;SDS011;1662;49.310;8.134;2023-05-15T06:54:35;5.90;;;5.57;;
3299;SDS011;1662;49.310;8.134;2023-05-15T06:57:00;5.40;;;5.00;;
3299;SDS011;1662;49.310;8.134;2023-05-15T06:59:26;4.77;;;4.47;;
3299;SDS011;1662;49.310;8.134;2023-05-15T07:01:52;4.80;;;4.50;;
3299;SDS011;1662;49.310;8.134;2023-05-15T07:04:17;5.30;;;4.80;;
3299;SDS011;1662;49.310;8.134;2023-05-15T07:06:43;5.27;;;4.67;;
3299;SDS011;1662;49.310;8.134;2023-05-15T07:09:09;5.50;;;5.03;;
3299;SDS011;1662;49.310;8.134;2023-05-15T07:11:34;4.47;;;4.17;;
3299;SDS011;1662;49.310;8.134;2023-05-15T07:14:03;4.70;;;4.47;;
3299;SDS011;1662;49.310;8.134;2023-05-15T07:16:31;4.10;;;3.90;;
3299;SDS011;1662;49.310;8.134;2023-05-15T07:18:56;4.63;;;4.33;;
3299;SDS011;1662;49.310;8.134;2023-05-15T07:21:22;4.70;;;4.40;;
3299;SDS011;1662;49.310;8.134;2023-05-15T07:23:48;4.90;;;4.60;;
3299;SDS011;1662;49.310;8.134;2023-05-15T07:26:14;4.30;;;4.00;;
3299;SDS011;1662;49.310;8.134;2023-05-15T07:28:39;4.90;;;4.60;;
3299;SDS011;1662;49.310;8.134;2023-05-15T07:31:06;5.47;;;5.00;;
3299;SDS011;1662;49.310;8.134;2023-05-15T07:33:32;4.63;;;4.33;;
3299;SDS011;1662;49.310;8.134;2023-05-15T07:35:57;3.73;;;3.60;;
3299;SDS011;1662;49.310;8.134;2023-05-15T07:38:23;4.00;;;3.90;;
3299;SDS011;1662;49.310;8.134;2023-05-15T07:40:49;4.30;;;4.10;;
3299;SDS011;1662;49.310;8.134;2023-05-15T07:43:14;4.30;;;4.10;;
3299;SDS011;1662;49.310;8.134;2023-05-15T07:45:40;5.50;;;5.00;;
3299;SDS011;1662;49.310;8.134;2023-05-15T07:48:15;4.20;;;4.00;;
3299;SDS011;1662;49.310;8.134;2023-05-15T07:50:43;4.23;;;3.73;;
3299;SDS011;1662;49.310;8.134;2023-05-15T07:53:10;5.17;;;4.20;;
3299;SDS011;1662;49.310;8.134;2023-05-15T07:55:41;3.40;;;3.30;;
3299;SDS011;1662;49.310;8.134;2023-05-15T07:58:08;3.90;;;3.70;;
3299;SDS011;1662;49.310;8.134;2023-05-15T08:00:34;5.57;;;5.07;;
3299;SDS011;1662;49.310;8.134;2023-05-15T08:03:02;4.70;;;4.37;;
3299;SDS011;1662;49.310;8.134;2023-05-15T08:05:33;4.23;;;4.03;;
3299;SDS011;1662;49.310;8.134;2023-05-15T08:08:09;4.30;;;4.00;;
3299;SDS011;1662;49.310;8.134;2023-05-15T08:10:35;6.73;;;4.27;;
3299;SDS011;1662;49.310;8.134;2023-05-15T08:13:05;4.53;;;4.17;;
3299;SDS011;1662;49.310;8.134;2023-05-15T08:15:31;4.33;;;4.10;;
3299;SDS011;1662;49.310;8.134;2023-05-15T08:18:11;5.00;;;4.70;;
3299;SDS011;1662;49.310;8.134;2023-05-15T08:20:39;4.40;;;4.10;;
3299;SDS011;1662;49.310;8.134;2023-05-15T08:23:05;4.37;;;4.17;;
3299;SDS011;1662;49.310;8.134;2023-05-15T08:25:34;5.17;;;4.87;;
3299;SDS011;1662;49.310;8.134;2023-05-15T08:28:00;4.70;;;4.50;;
3299;SDS011;1662;49.310;8.134;2023-05-15T08:30:29;5.10;;;4.67;;
3299;SDS011;1662;49.310;8.134;2023-05-15T08:32:55;5.27;;;4.87;;
3299;SDS011;1662;49.310;8.134;2023-05-15T08:35:25;4.67;;;4.20;;
3299;SDS011;1662;49.310;8.134;2023-05-15T08:37:50;4.70;;;4.10;;
3299;SDS011;1662;49.310;8.134;2023-05-15T08:40:17;4.33;;;4.13;;
3299;SDS011;1662;49.310;8.134;2023-05-15T08:42:44;4.27;;;4.07;;
3299;SDS011;1662;49.310;8.134;2023-05-15T08:45:13;5.17;;;4.87;;
3299;SDS011;1662;49.310;8.134;2023-05-15T08:47:40;5.63;;;5.20;;
3299;SDS011;1662;49.310;8.134;2023-05-15T08:50:13;5.27;;;4.77;;
3299;SDS011;1662;49.310;8.134;2023-05-15T08:52:42;4.47;;;4.17;;
3299;SDS011;1662;49.310;8.134;2023-05-15T08:55:14;5.40;;;5.10;;
3299;SDS011;1662;49.310;8.134;2023-05-15T08:57:41;4.90;;;4.60;;
3299;SDS011;1662;49.310;8.134;2023-05-15T09:00:09;4.77;;;4.57;;
3299;SDS011;1662;49.310;8.134;2023-05-15T09:02:38;4.47;;;4.10;;
3299;SDS011;1662;49.310;8.134;2023-05-15T09:05:04;4.67;;;4.13;;
3299;SDS011;1662;49.310;8.134;2023-05-15T09:07:31;5.90;;;5.50;;
3299;SDS011;1662;49.310;8.134;2023-05-15T09:09:57;4.40;;;4.30;;
3299;SDS011;1662;49.310;8.134;2023-05-15T09:12:24;4.90;;;4.40;;
3299;SDS011;1662;49.310;8.134;2023-05-15T09:14:50;4.97;;;4.57;;
3299;SDS011;1662;49.310;8.134;2023-05-15T09:17:16;4.27;;;4.07;;
3299;SDS011;1662;49.310;8.134;2023-05-15T09:19:44;4.13;;;4.03;;
3299;SDS011;1662;49.310;8.134;2023-05-15T09:24:41;4.73;;;4.50;;
3299;SDS011;1662;49.310;8.134;2023-05-15T09:27:08;5.50;;;5.00;;
3299;SDS011;1662;49.310;8.134;2023-05-15T09:29:35;6.03;;;5.20;;
3299;SDS011;1662;49.310;8.134;2023-05-15T09:32:06;4.70;;;4.47;;
3299;SDS011;1662;49.310;8.134;2023-05-15T09:34:38;4.00;;;3.80;;
3299;SDS011;1662;49.310;8.134;2023-05-15T09:37:06;5.40;;;5.00;;
3299;SDS011;1662;49.310;8.134;2023-05-15T09:39:51;4.53;;;4.33;;
3299;SDS011;1662;49.310;8.134;2023-05-15T09:42:16;5.77;;;5.47;;
3299;SDS011;1662;49.310;8.134;2023-05-15T09:44:42;5.87;;;5.40;;
3299;SDS011;1662;49.310;8.134;2023-05-15T09:47:09;5.10;;;4.83;;
3299;SDS011;1662;49.310;8.134;2023-05-15T09:49:36;5.07;;;4.77;;
3299;SDS011;1662;49.310;8.134;2023-05-15T09:52:01;5.00;;;4.70;;
3299;SDS011;1662;49.310;8.134;2023-05-15T09:54:31;4.90;;;4.70;;
3299;SDS011;1662;49.310;8.134;2023-05-15T09:57:09;4.87;;;4.60;;
3299;SDS011;1662;49.310;8.134;2023-05-15T09:59:44;5.27;;;4.77;;
3299;SDS011;1662;49.310;8.134;2023-05-15T10:02:21;5.40;;;5.00;;
3299;SDS011;1662;49.310;8.134;2023-05-15T10:04:56;4.67;;;4.47;;
3299;SDS011;1662;49.310;8.134;2023-05-15T10:07:29;5.03;;;4.70;;
3299;SDS011;1662;49.310;8.134;2023-05-15T10:09:56;4.70;;;4.50;;
3299;SDS011;1662;49.310;8.134;2023-05-15T10:12:22;5.73;;;5.33;;
3299;SDS011;1662;49.310;8.134;2023-05-15T10:14:49;6.43;;;5.93;;
3299;SDS011;1662;49.310;8.134;2023-05-15T10:17:16;5.77;;;5.27;;
3299;SDS011;1662;49.310;8.134;2023-05-15T10:19:44;5.23;;;4.93;;
3299;SDS011;1662;49.310;8.134;2023-05-15T10:22:11;5.27;;;4.93;;
3299;SDS011;1662;49.310;8.134;2023-05-15T10:24:39;4.53;;;4.13;;
3299;SDS011;1662;49.310;8.134;2023-05-15T10:27:08;4.37;;;4.07;;
3299;SDS011;1662;49.310;8.134;2023-05-15T10:29:35;4.93;;;4.30;;
3299;SDS011;1662;49.310;8.134;2023-05-15T10:32:02;5.00;;;4.60;;
3299;SDS011;1662;49.310;8.134;2023-05-15T10:34:28;4.97;;;4.63;;
3299;SDS011;1662;49.310;8.134;2023-05-15T10:36:57;4.90;;;4.60;;
3299;SDS011;1662;49.310;8.134;2023-05-15T10:39:24;4.80;;;4.40;;
3299;SDS011;1662;49.310;8.134;2023-05-15T10:41:55;5.30;;;4.90;;
3299;SDS011;1662;49.310;8.134;2023-05-15T10:44:24;5.70;;;5.40;;
3299;SDS011;1662;49.310;8.134;2023-05-15T10:46:49;5.60;;;5.03;;
3299;SDS011;1662;49.310;8.134;2023-05-15T10:49:16;6.07;;;5.47;;
3299;SDS011;1662;49.310;8.134;2023-05-15T10:51:41;6.13;;;5.63;;
3299;SDS011;1662;49.310;8.134;2023-05-15T10:54:07;5.77;;;5.47;;
3299;SDS011;1662;49.310;8.134;2023-05-15T10:56:35;7.37;;;6.47;;
3299;SDS011;1662;49.310;8.134;2023-05-15T10:59:05;6.77;;;5.97;;
3299;SDS011;1662;49.310;8.134;2023-05-15T11:01:34;5.30;;;4.90;;
3299;SDS011;1662;49.310;8.134;2023-05-15T11:04:14;5.80;;;5.40;;
3299;SDS011;1662;49.310;8.134;2023-05-15T11:06:47;5.80;;;5.40;;
3299;SDS011;1662;49.310;8.134;2023-05-15T11:11:59;5.17;;;4.73;;
3299;SDS011;1662;49.310;8.134;2023-05-15T11:14:29;4.50;;;4.27;;
3299;SDS011;1662;49.310;8.134;2023-05-15T11:17:07;5.20;;;4.87;;
3299;SDS011;1662;49.310;8.134;2023-05-15T11:30:08;4.80;;;4.60;;
3299;SDS011;1662;49.310;8.134;2023-05-15T11:37:55;6.10;;;5.60;;
3299;SDS011;1662;49.310;8.134;2023-05-15T11:40:24;5.10;;;4.90;;
3299;SDS011;1662;49.310;8.134;2023-05-15T11:45:29;7.40;;;6.90;;
3299;SDS011;1662;49.310;8.134;2023-05-15T11:47:58;7.13;;;6.70;;
3299;SDS011;1662;49.310;8.134;2023-05-15T11:50:25;7.60;;;7.10;;
3299;SDS011;1662;49.310;8.134;2023-05-15T11:52:51;8.40;;;7.50;;
3299;SDS011;1662;49.310;8.134;2023-05-15T11:55:17;7.50;;;7.00;;
3299;SDS011;1662;49.310;8.134;2023-05-15T11:57:47;8.17;;;7.67;;
3299;SDS011;1662;49.310;8.134;2023-05-15T12:00:13;9.07;;;8.37;;
3299;SDS011;1662;49.310;8.134;2023-05-15T12:02:39;8.93;;;8.13;;
3299;SDS011;1662;49.310;8.134;2023-05-15T12:05:06;9.83;;;9.13;;
3299;SDS011;1662;49.310;8.134;2023-05-15T12:07:42;10.80;;;9.93;;
3299;SDS011;1662;49.310;8.134;2023-05-15T12:10:08;8.17;;;7.67;;
3299;SDS011;1662;49.310;8.134;2023-05-15T12:12:38;8.20;;;7.67;;
3299;SDS011;1662;49.310;8.134;2023-05-15T12:15:07;8.37;;;7.80;;
3299;SDS011;1662;49.310;8.134;2023-05-15T12:17:35;8.83;;;8.13;;
3299;SDS011;1662;49.310;8.134;2023-05-15T12:20:09;8.73;;;7.90;;
3299;SDS011;1662;49.310;8.134;2023-05-15T12:22:39;8.43;;;7.80;;
3299;SDS011;1662;49.310;8.134;2023-05-15T12:25:06;8.73;;;7.90;;
3299;SDS011;1662;49.310;8.134;2023-05-15T12:27:33;8.77;;;7.90;;
3299;SDS011;1662;49.310;8.134;2023-05-15T12:30:02;10.67;;;9.00;;
3299;SDS011;1662;49.310;8.134;2023-05-15T12:32:31;8.90;;;8.20;;
3299;SDS011;1662;49.310;8.134;2023-05-15T12:35:02;9.53;;;8.93;;
3299;SDS011;1662;49.310;8.134;2023-05-15T12:37:31;8.47;;;7.60;;
3299;SDS011;1662;49.310;8.134;2023-05-15T12:40:00;9.30;;;7.90;;
3299;SDS011;1662;49.310;8.134;2023-05-15T12:42:38;9.53;;;8.73;;
3299;SDS011;1662;49.310;8.134;2023-05-15T12:45:10;9.90;;;9.00;;
3299;SDS011;1662;49.310;8.134;2023-05-15T12:47:38;7.77;;;7.20;;
3299;SDS011;1662;49.310;8.134;2023-05-15T12:53:02;8.17;;;7.47;;
3299;SDS011;1662;49.310;8.134;2023-05-15T12:55:32;8.13;;;7.53;;
3299;SDS011;1662;49.310;8.134;2023-05-15T12:58:11;7.20;;;6.70;;
3299;SDS011;1662;49.310;8.134;2023-05-15T13:00:42;8.20;;;7.43;;
3299;SDS011;1662;49.310;8.134;2023-05-15T13:03:12;8.47;;;7.73;;
3299;SDS011;1662;49.310;8.134;2023-05-15T13:05:40;7.40;;;6.80;;
3299;SDS011;1662;49.310;8.134;2023-05-15T13:08:07;7.87;;;7.07;;
3299;SDS011;1662;49.310;8.134;2023-05-15T13:10:39;8.83;;;7.90;;
3299;SDS011;1662;49.310;8.134;2023-05-15T13:13:07;7.47;;;6.97;;
3299;SDS011;1662;49.310;8.134;2023-05-15T13:18:14;8.00;;;7.30;;
3299;SDS011;1662;49.310;8.134;2023-05-15T13:20:43;9.13;;;8.33;;
3299;SDS011;1662;49.310;8.134;2023-05-15T13:23:16;8.20;;;7.60;;
3299;SDS011;1662;49.310;8.134;2023-05-15T13:25:43;8.30;;;7.50;;
3299;SDS011;1662;49.310;8.134;2023-05-15T13:28:11;8.20;;;7.43;;
3299;SDS011;1662;49.310;8.134;2023-05-15T13:30:39;6.97;;;6.47;;
3299;SDS011;1662;49.310;8.134;2023-05-15T13:33:06;6.30;;;5.90;;
3299;SDS011;1662;49.310;8.134;2023-05-15T13:35:32;6.60;;;6.10;;
3299;SDS011;1662;49.310;8.134;2023-05-15T13:37:59;6.07;;;5.77;;
3299;SDS011;1662;49.310;8.134;2023-05-15T13:40:25;6.47;;;6.07;;
3299;SDS011;1662;49.310;8.134;2023-05-15T13:42:51;5.97;;;5.67;;
3299;SDS011;1662;49.310;8.134;2023-05-15T13:45:18;5.97;;;5.57;;
3299;SDS011;1662;49.310;8.134;2023-05-15T13:47:43;5.97;;;5.67;;
3299;SDS011;1662;49.310;8.134;2023-05-15T13:50:17;5.33;;;5.03;;
3299;SDS011;1662;49.310;8.134;2023-05-15T13:52:43;5.90;;;5.70;;
3299;SDS011;1662;49.310;8.134;2023-05-15T13:55:10;6.07;;;5.77;;
3299;SDS011;1662;49.310;8.134;2023-05-15T13:57:58;6.47;;;5.90;;
3299;SDS011;1662;49.310;8.134;2023-05-15T14:00:25;6.73;;;6.23;;
3299;SDS011;1662;49.310;8.134;2023-05-15T14:02:56;6.70;;;6.40;;
3299;SDS011;1662;49.310;8.134;2023-05-15T14:05:22;6.30;;;6.00;;
3299;SDS011;1662;49.310;8.134;2023-05-15T14:07:54;7.40;;;6.90;;
3299;SDS011;1662;49.310;8.134;2023-05-15T14:10:33;6.47;;;6.20;;
3299;SDS011;1662;49.310;8.134;2023-05-15T14:13:21;7.50;;;7.10;;
3299;SDS011;1662;49.310;8.134;2023-05-15T14:16:00;7.57;;;7.17;;
3299;SDS011;1662;49.310;8.134;2023-05-15T14:18:27;7.10;;;6.80;;
3299;SDS011;1662;49.310;8.134;2023-05-15T14:21:13;7.93;;;7.63;;
3299;SDS011;1662;49.310;8.134;2023-05-15T14:24:08;9.30;;;8.80;;
3299;SDS011;1662;49.310;8.134;2023-05-15T14:26:43;10.20;;;9.60;;
3299;SDS011;1662;49.310;8.134;2023-05-15T14:29:37;12.03;;;10.80;;
3299;SDS011;1662;49.310;8.134;2023-05-15T14:32:25;9.40;;;8.90;;
3299;SDS011;1662;49.310;8.134;2023-05-15T14:35:47;9.40;;;8.90;;
3299;SDS011;1662;49.310;8.134;2023-05-15T14:38:31;10.10;;;9.50;;
3299;SDS011;1662;49.310;8.134;2023-05-15T14:40:56;10.60;;;10.10;;
3299;SDS011;1662;49.310;8.134;2023-05-15T14:43:24;11.40;;;10.70;;
3299;SDS011;1662;49.310;8.134;2023-05-15T14:46:03;12.00;;;11.00;;
3299;SDS011;1662;49.310;8.134;2023-05-15T14:49:06;11.33;;;10.67;;
3299;SDS011;1662;49.310;8.134;2023-05-15T14:51:37;10.73;;;9.93;;
3299;SDS011;1662;49.310;8.134;2023-05-15T14:54:05;9.43;;;8.83;;
3299;SDS011;1662;49.310;8.134;2023-05-15T14:56:31;8.90;;;8.50;;
3299;SDS011;1662;49.310;8.134;2023-05-15T14:58:57;9.23;;;8.73;;
3299;SDS011;1662;49.310;8.134;2023-05-15T15:01:22;14.53;;;11.87;;
3299;SDS011;1662;49.310;8.134;2023-05-15T15:03:48;13.70;;;12.37;;
3299;SDS011;1662;49.310;8.134;2023-05-15T15:06:13;12.20;;;11.37;;
3299;SDS011;1662;49.310;8.134;2023-05-15T15:08:39;12.93;;;12.03;;
3299;SDS011;1662;49.310;8.134;2023-05-15T15:11:06;13.60;;;12.00;;
3299;SDS011;1662;49.310;8.134;2023-05-15T15:13:58;15.10;;;11.57;;
3299;SDS011;1662;49.310;8.134;2023-05-15T15:16:34;12.63;;;11.63;;
3299;SDS011;1662;49.310;8.134;2023-05-15T15:19:39;12.50;;;11.53;;
3299;SDS011;1662;49.310;8.134;2023-05-15T15:22:15;12.53;;;11.40;;
3299;SDS011;1662;49.310;8.134;2023-05-15T15:25:03;11.07;;;9.97;;
3299;SDS011;1662;49.310;8.134;2023-05-15T15:28:43;11.73;;;10.80;;
3299;SDS011;1662;49.310;8.134;2023-05-15T15:32:29;10.30;;;9.30;;
3299;SDS011;1662;49.310;8.134;2023-05-15T15:35:30;11.67;;;9.60;;
3299;SDS011;1662;49.310;8.134;2023-05-15T15:38:41;9.40;;;8.70;;
3299;SDS011;1662;49.310;8.134;2023-05-15T15:41:44;10.27;;;9.50;;
3299;SDS011;1662;49.310;8.134;2023-05-15T15:48:21;9.47;;;8.70;;
3299;SDS011;1662;49.310;8.134;2023-05-15T15:50:47;9.60;;;8.80;;
3299;SDS011;1662;49.310;8.134;2023-05-15T15:53:12;10.03;;;9.13;;
3299;SDS011;1662;49.310;8.134;2023-05-15T15:55:38;11.63;;;8.90;;
3299;SDS011;1662;49.310;8.134;2023-05-15T15:58:04;10.43;;;9.50;;
3299;SDS011;1662;49.310;8.134;2023-05-15T16:00:30;15.80;;;9.30;;
3299;SDS011;1662;49.310;8.134;2023-05-15T16:02:58;8.93;;;8.23;;
3299;SDS011;1662;49.310;8.134;2023-05-15T16:05:29;8.80;;;8.10;;
3299;SDS011;1662;49.310;8.134;2023-05-15T16:11:14;8.33;;;7.63;;
3299;SDS011;1662;49.310;8.134;2023-05-15T16:13:58;8.70;;;7.90;;
3299;SDS011;1662;49.310;8.134;2023-05-15T16:19:57;8.13;;;7.40;;
3299;SDS011;1662;49.310;8.134;2023-05-15T16:22:28;8.50;;;7.90;;
3299;SDS011;1662;49.310;8.134;2023-05-15T16:32:43;9.47;;;8.60;;
3299;SDS011;1662;49.310;8.134;2023-05-15T16:35:21;9.60;;;8.60;;